sensor_id;sensor_type;location;lat;lon;timestamp;P1;durP1;ratioP1;P2;durP2;ratioP2
1665;SDS011;831;48.308;14.294;2022-07-12T00:01:38;15.07;;;14.37;;
1665;SDS011;831;48.308;14.294;2022-07-12T00:04:05;14.97;;;14.17;;
1665;SDS011;831;48.308;14.294;2022-07-12T00:06:31;15.10;;;14.40;;
1665;SDS011;831;48.308;14.294;2022-07-12T00:08:59;15.33;;;14.53;;
1665;SDS011;831;48.308;14.294;2022-07-12T00:11:26;16.07;;;15.27;;
1665;SDS011;831;48.308;14.294;2022-07-12T00:13:53;15.40;;;14.60;;
1665;SDS011;831;48.308;14.294;2022-07-12T00:16:19;15.47;;;14.67;;
1665;SDS011;831;48.308;14.294;2022-07-12T00:18:47;15.53;;;14.73;;
1665;SDS011;831;48.308;14.294;2022-07-12T00:21:13;15.23;;;14.53;;
1665;SDS011;831;48.308;14.294;2022-07-12T00:23:40;15.13;;;14.43;;
1665;SDS011;831;48.308;14.294;2022-07-12T00:26:08;15.70;;;14.90;;
1665;SDS011;831;48.308;14.294;2022-07-12T00:28:34;15.40;;;14.60;;
1665;SDS011;831;48.308;14.294;2022-07-12T00:31:01;15.27;;;14.50;;
1665;SDS011;831;48.308;14.294;2022-07-12T00:33:28;15.80;;;15.00;;
1665;SDS011;831;48.308;14.294;2022-07-12T00:35:55;15.63;;;14.90;;
1665;SDS011;831;48.308;14.294;2022-07-12T00:38:22;15.93;;;15.13;;
1665;SDS011;831;48.308;14.294;2022-07-12T00:40:48;15.50;;;14.80;;
1665;SDS011;831;48.308;14.294;2022-07-12T00:43:17;16.70;;;15.80;;
1665;SDS011;831;48.308;14.294;2022-07-12T00:45:43;16.20;;;15.33;;
1665;SDS011;831;48.308;14.294;2022-07-12T00:48:10;16.20;;;15.40;;
1665;SDS011;831;48.308;14.294;2022-07-12T00:50:37;16.63;;;15.83;;
1665;SDS011;831;48.308;14.294;2022-07-12T00:53:03;16.70;;;15.80;;
1665;SDS011;831;48.308;14.294;2022-07-12T00:55:30;16.70;;;15.90;;
1665;SDS011;831;48.308;14.294;2022-07-12T00:57:57;16.70;;;15.80;;
1665;SDS011;831;48.308;14.294;2022-07-12T01:00:25;16.80;;;15.80;;
1665;SDS011;831;48.308;14.294;2022-07-12T01:02:53;16.27;;;15.40;;
1665;SDS011;831;48.308;14.294;2022-07-12T01:05:21;16.70;;;15.80;;
1665;SDS011;831;48.308;14.294;2022-07-12T01:07:48;16.37;;;15.57;;
1665;SDS011;831;48.308;14.294;2022-07-12T01:10:15;17.07;;;16.17;;
1665;SDS011;831;48.308;14.294;2022-07-12T01:12:42;16.97;;;16.07;;
1665;SDS011;831;48.308;14.294;2022-07-12T01:15:09;17.70;;;16.80;;
1665;SDS011;831;48.308;14.294;2022-07-12T01:17:37;17.70;;;16.67;;
1665;SDS011;831;48.308;14.294;2022-07-12T01:20:05;17.60;;;16.60;;
1665;SDS011;831;48.308;14.294;2022-07-12T01:22:33;17.77;;;16.87;;
1665;SDS011;831;48.308;14.294;2022-07-12T01:25:02;17.67;;;16.77;;
1665;SDS011;831;48.308;14.294;2022-07-12T01:27:29;17.00;;;16.10;;
1665;SDS011;831;48.308;14.294;2022-07-12T01:29:55;17.57;;;16.67;;
1665;SDS011;831;48.308;14.294;2022-07-12T01:32:22;17.83;;;16.87;;
1665;SDS011;831;48.308;14.294;2022-07-12T01:34:52;17.40;;;16.50;;
1665;SDS011;831;48.308;14.294;2022-07-12T01:37:19;17.50;;;16.60;;
1665;SDS011;831;48.308;14.294;2022-07-12T01:39:48;17.33;;;16.33;;
1665;SDS011;831;48.308;14.294;2022-07-12T01:42:16;18.97;;;17.97;;
1665;SDS011;831;48.308;14.294;2022-07-12T01:44:43;16.87;;;15.90;;
1665;SDS011;831;48.308;14.294;2022-07-12T01:47:10;17.60;;;16.70;;
1665;SDS011;831;48.308;14.294;2022-07-12T01:49:36;17.90;;;16.80;;
1665;SDS011;831;48.308;14.294;2022-07-12T01:52:03;17.60;;;16.70;;
1665;SDS011;831;48.308;14.294;2022-07-12T01:54:30;17.60;;;16.70;;
1665;SDS011;831;48.308;14.294;2022-07-12T01:56:57;16.87;;;15.97;;
1665;SDS011;831;48.308;14.294;2022-07-12T01:59:25;16.73;;;15.83;;
1665;SDS011;831;48.308;14.294;2022-07-12T02:01:51;18.40;;;17.40;;
1665;SDS011;831;48.308;14.294;2022-07-12T02:04:18;17.57;;;16.67;;
1665;SDS011;831;48.308;14.294;2022-07-12T02:06:45;18.13;;;17.13;;
1665;SDS011;831;48.308;14.294;2022-07-12T02:09:11;17.80;;;16.90;;
1665;SDS011;831;48.308;14.294;2022-07-12T02:11:38;17.80;;;16.70;;
1665;SDS011;831;48.308;14.294;2022-07-12T02:14:04;16.97;;;16.07;;
1665;SDS011;831;48.308;14.294;2022-07-12T02:16:33;17.60;;;16.60;;
1665;SDS011;831;48.308;14.294;2022-07-12T02:18:59;18.03;;;17.03;;
1665;SDS011;831;48.308;14.294;2022-07-12T02:21:26;18.47;;;17.47;;
1665;SDS011;831;48.308;14.294;2022-07-12T02:23:53;17.90;;;16.90;;
1665;SDS011;831;48.308;14.294;2022-07-12T02:26:19;18.00;;;17.00;;
1665;SDS011;831;48.308;14.294;2022-07-12T02:28:46;18.13;;;17.20;;
1665;SDS011;831;48.308;14.294;2022-07-12T02:31:13;18.70;;;17.70;;
1665;SDS011;831;48.308;14.294;2022-07-12T02:33:41;18.00;;;16.97;;
1665;SDS011;831;48.308;14.294;2022-07-12T02:36:07;18.60;;;17.60;;
1665;SDS011;831;48.308;14.294;2022-07-12T02:38:34;18.40;;;17.40;;
1665;SDS011;831;48.308;14.294;2022-07-12T02:41:03;18.73;;;17.60;;
1665;SDS011;831;48.308;14.294;2022-07-12T02:43:30;18.60;;;17.60;;
1665;SDS011;831;48.308;14.294;2022-07-12T02:46:02;18.30;;;17.30;;
1665;SDS011;831;48.308;14.294;2022-07-12T02:48:29;18.03;;;17.10;;
1665;SDS011;831;48.308;14.294;2022-07-12T02:50:58;17.60;;;16.70;;
1665;SDS011;831;48.308;14.294;2022-07-12T02:53:25;18.00;;;17.03;;
1665;SDS011;831;48.308;14.294;2022-07-12T02:55:51;18.07;;;17.07;;
1665;SDS011;831;48.308;14.294;2022-07-12T02:58:18;17.70;;;16.80;;
1665;SDS011;831;48.308;14.294;2022-07-12T03:00:44;19.10;;;18.10;;
1665;SDS011;831;48.308;14.294;2022-07-12T03:03:11;19.47;;;18.20;;
1665;SDS011;831;48.308;14.294;2022-07-12T03:05:38;19.80;;;18.40;;
1665;SDS011;831;48.308;14.294;2022-07-12T03:08:08;18.97;;;17.77;;
1665;SDS011;831;48.308;14.294;2022-07-12T03:10:35;20.07;;;18.97;;
1665;SDS011;831;48.308;14.294;2022-07-12T03:13:01;19.87;;;18.77;;
1665;SDS011;831;48.308;14.294;2022-07-12T03:15:29;19.10;;;18.00;;
1665;SDS011;831;48.308;14.294;2022-07-12T03:17:55;19.70;;;18.60;;
1665;SDS011;831;48.308;14.294;2022-07-12T03:20:22;20.17;;;19.07;;
1665;SDS011;831;48.308;14.294;2022-07-12T03:22:49;19.23;;;18.13;;
1665;SDS011;831;48.308;14.294;2022-07-12T03:25:18;19.00;;;18.00;;
1665;SDS011;831;48.308;14.294;2022-07-12T03:27:45;20.60;;;19.40;;
1665;SDS011;831;48.308;14.294;2022-07-12T03:30:11;19.70;;;18.60;;
1665;SDS011;831;48.308;14.294;2022-07-12T03:32:38;20.20;;;19.00;;
1665;SDS011;831;48.308;14.294;2022-07-12T03:35:05;19.63;;;18.57;;
1665;SDS011;831;48.308;14.294;2022-07-12T03:37:39;19.77;;;18.67;;
1665;SDS011;831;48.308;14.294;2022-07-12T03:40:06;20.47;;;19.37;;
1665;SDS011;831;48.308;14.294;2022-07-12T03:42:34;20.70;;;19.40;;
1665;SDS011;831;48.308;14.294;2022-07-12T03:45:01;20.50;;;19.20;;
1665;SDS011;831;48.308;14.294;2022-07-12T03:47:28;21.23;;;19.97;;
1665;SDS011;831;48.308;14.294;2022-07-12T03:49:55;21.00;;;19.70;;
1665;SDS011;831;48.308;14.294;2022-07-12T03:52:22;20.83;;;19.63;;
1665;SDS011;831;48.308;14.294;2022-07-12T03:54:48;19.63;;;18.43;;
1665;SDS011;831;48.308;14.294;2022-07-12T03:57:15;20.53;;;19.27;;
1665;SDS011;831;48.308;14.294;2022-07-12T03:59:43;20.57;;;19.37;;
1665;SDS011;831;48.308;14.294;2022-07-12T04:02:10;20.70;;;19.50;;
1665;SDS011;831;48.308;14.294;2022-07-12T04:04:36;20.80;;;19.50;;
1665;SDS011;831;48.308;14.294;2022-07-12T04:07:03;20.47;;;19.27;;
1665;SDS011;831;48.308;14.294;2022-07-12T04:09:30;20.20;;;19.03;;
1665;SDS011;831;48.308;14.294;2022-07-12T04:11:57;21.00;;;19.70;;
1665;SDS011;831;48.308;14.294;2022-07-12T04:14:23;20.00;;;18.90;;
1665;SDS011;831;48.308;14.294;2022-07-12T04:16:51;19.77;;;18.67;;
1665;SDS011;831;48.308;14.294;2022-07-12T04:19:18;19.87;;;18.57;;
1665;SDS011;831;48.308;14.294;2022-07-12T04:21:45;19.83;;;18.63;;
1665;SDS011;831;48.308;14.294;2022-07-12T04:24:12;19.50;;;18.40;;
1665;SDS011;831;48.308;14.294;2022-07-12T04:26:38;19.37;;;18.13;;
1665;SDS011;831;48.308;14.294;2022-07-12T04:29:05;19.37;;;18.27;;
1665;SDS011;831;48.308;14.294;2022-07-12T04:31:31;19.17;;;18.17;;
1665;SDS011;831;48.308;14.294;2022-07-12T04:33:59;19.07;;;18.07;;
1665;SDS011;831;48.308;14.294;2022-07-12T04:36:26;18.70;;;17.60;;
1665;SDS011;831;48.308;14.294;2022-07-12T04:38:53;17.60;;;16.70;;
1665;SDS011;831;48.308;14.294;2022-07-12T04:41:20;19.23;;;18.00;;
1665;SDS011;831;48.308;14.294;2022-07-12T04:43:47;18.00;;;17.00;;
1665;SDS011;831;48.308;14.294;2022-07-12T04:46:13;19.30;;;18.20;;
1665;SDS011;831;48.308;14.294;2022-07-12T04:48:40;19.10;;;18.07;;
1665;SDS011;831;48.308;14.294;2022-07-12T04:51:08;19.90;;;18.80;;
1665;SDS011;831;48.308;14.294;2022-07-12T04:53:35;18.50;;;17.50;;
1665;SDS011;831;48.308;14.294;2022-07-12T04:56:01;18.57;;;17.57;;
1665;SDS011;831;48.308;14.294;2022-07-12T04:58:28;18.60;;;17.60;;
1665;SDS011;831;48.308;14.294;2022-07-12T05:00:54;17.77;;;16.77;;
1665;SDS011;831;48.308;14.294;2022-07-12T05:03:21;18.53;;;17.43;;
1665;SDS011;831;48.308;14.294;2022-07-12T05:05:52;18.20;;;17.00;;
1665;SDS011;831;48.308;14.294;2022-07-12T05:08:20;18.10;;;17.10;;
1665;SDS011;831;48.308;14.294;2022-07-12T05:10:47;18.37;;;17.37;;
1665;SDS011;831;48.308;14.294;2022-07-12T05:13:13;19.73;;;18.33;;
1665;SDS011;831;48.308;14.294;2022-07-12T05:15:40;19.13;;;18.03;;
1665;SDS011;831;48.308;14.294;2022-07-12T05:18:06;20.43;;;19.20;;
1665;SDS011;831;48.308;14.294;2022-07-12T05:20:33;20.00;;;18.90;;
1665;SDS011;831;48.308;14.294;2022-07-12T05:22:59;20.23;;;19.13;;
1665;SDS011;831;48.308;14.294;2022-07-12T05:25:27;19.70;;;18.60;;
1665;SDS011;831;48.308;14.294;2022-07-12T05:27:54;21.00;;;19.80;;
1665;SDS011;831;48.308;14.294;2022-07-12T05:30:21;20.93;;;19.63;;
1665;SDS011;831;48.308;14.294;2022-07-12T05:32:47;21.47;;;20.10;;
1665;SDS011;831;48.308;14.294;2022-07-12T05:35:14;20.27;;;19.03;;
1665;SDS011;831;48.308;14.294;2022-07-12T05:37:41;19.63;;;18.53;;
1665;SDS011;831;48.308;14.294;2022-07-12T05:40:08;20.10;;;19.00;;
1665;SDS011;831;48.308;14.294;2022-07-12T05:42:36;19.50;;;18.50;;
1665;SDS011;831;48.308;14.294;2022-07-12T05:45:03;18.80;;;17.80;;
1665;SDS011;831;48.308;14.294;2022-07-12T05:47:29;19.80;;;18.80;;
1665;SDS011;831;48.308;14.294;2022-07-12T05:49:56;19.80;;;18.70;;
1665;SDS011;831;48.308;14.294;2022-07-12T05:52:22;18.40;;;17.40;;
1665;SDS011;831;48.308;14.294;2022-07-12T05:55:06;18.47;;;17.57;;
1665;SDS011;831;48.308;14.294;2022-07-12T05:57:33;19.50;;;18.30;;
1665;SDS011;831;48.308;14.294;2022-07-12T06:00:01;19.00;;;17.90;;
1665;SDS011;831;48.308;14.294;2022-07-12T06:02:28;19.10;;;18.00;;
1665;SDS011;831;48.308;14.294;2022-07-12T06:04:54;18.50;;;17.40;;
1665;SDS011;831;48.308;14.294;2022-07-12T06:07:21;18.40;;;17.40;;
1665;SDS011;831;48.308;14.294;2022-07-12T06:09:47;18.03;;;17.13;;
1665;SDS011;831;48.308;14.294;2022-07-12T06:12:14;17.50;;;16.60;;
1665;SDS011;831;48.308;14.294;2022-07-12T06:14:40;17.27;;;16.47;;
1665;SDS011;831;48.308;14.294;2022-07-12T06:17:08;17.20;;;16.40;;
1665;SDS011;831;48.308;14.294;2022-07-12T06:19:35;16.60;;;15.70;;
1665;SDS011;831;48.308;14.294;2022-07-12T06:22:02;16.47;;;15.67;;
1665;SDS011;831;48.308;14.294;2022-07-12T06:24:28;16.33;;;15.53;;
1665;SDS011;831;48.308;14.294;2022-07-12T06:26:55;15.90;;;15.10;;
1665;SDS011;831;48.308;14.294;2022-07-12T06:29:21;15.70;;;15.00;;
1665;SDS011;831;48.308;14.294;2022-07-12T06:31:49;15.50;;;14.70;;
1665;SDS011;831;48.308;14.294;2022-07-12T06:34:17;14.50;;;13.80;;
1665;SDS011;831;48.308;14.294;2022-07-12T06:36:43;13.03;;;12.43;;
1665;SDS011;831;48.308;14.294;2022-07-12T06:39:10;12.80;;;12.10;;
1665;SDS011;831;48.308;14.294;2022-07-12T06:41:36;12.80;;;12.30;;
1665;SDS011;831;48.308;14.294;2022-07-12T06:44:03;12.90;;;12.30;;
1665;SDS011;831;48.308;14.294;2022-07-12T06:46:30;13.80;;;13.10;;
1665;SDS011;831;48.308;14.294;2022-07-12T06:48:56;13.77;;;13.07;;
1665;SDS011;831;48.308;14.294;2022-07-12T06:51:24;13.10;;;12.40;;
1665;SDS011;831;48.308;14.294;2022-07-12T06:53:51;13.33;;;12.73;;
1665;SDS011;831;48.308;14.294;2022-07-12T06:56:17;13.37;;;12.67;;
1665;SDS011;831;48.308;14.294;2022-07-12T06:58:44;12.40;;;11.90;;
1665;SDS011;831;48.308;14.294;2022-07-12T07:01:10;13.03;;;12.10;;
1665;SDS011;831;48.308;14.294;2022-07-12T07:03:37;12.80;;;12.30;;
1665;SDS011;831;48.308;14.294;2022-07-12T07:06:04;12.30;;;11.80;;
1665;SDS011;831;48.308;14.294;2022-07-12T07:08:32;12.30;;;11.70;;
1665;SDS011;831;48.308;14.294;2022-07-12T07:10:59;12.70;;;12.00;;
1665;SDS011;831;48.308;14.294;2022-07-12T07:13:25;12.53;;;12.03;;
1665;SDS011;831;48.308;14.294;2022-07-12T07:15:52;12.27;;;11.77;;
1665;SDS011;831;48.308;14.294;2022-07-12T07:18:19;12.87;;;12.17;;
1665;SDS011;831;48.308;14.294;2022-07-12T07:20:45;12.60;;;12.00;;
1665;SDS011;831;48.308;14.294;2022-07-12T07:23:12;13.07;;;12.37;;
1665;SDS011;831;48.308;14.294;2022-07-12T07:25:47;12.97;;;12.20;;
1665;SDS011;831;48.308;14.294;2022-07-12T07:28:17;12.70;;;12.13;;
1665;SDS011;831;48.308;14.294;2022-07-12T07:30:43;11.83;;;11.33;;
1665;SDS011;831;48.308;14.294;2022-07-12T07:33:17;12.37;;;11.77;;
1665;SDS011;831;48.308;14.294;2022-07-12T07:35:44;12.53;;;11.93;;
1665;SDS011;831;48.308;14.294;2022-07-12T07:38:11;11.90;;;11.30;;
1665;SDS011;831;48.308;14.294;2022-07-12T07:40:38;12.17;;;11.60;;
1665;SDS011;831;48.308;14.294;2022-07-12T07:43:06;12.57;;;11.97;;
1665;SDS011;831;48.308;14.294;2022-07-12T07:45:32;12.67;;;12.17;;
1665;SDS011;831;48.308;14.294;2022-07-12T07:47:59;12.30;;;11.80;;
1665;SDS011;831;48.308;14.294;2022-07-12T07:50:26;12.13;;;11.53;;
1665;SDS011;831;48.308;14.294;2022-07-12T07:52:52;12.80;;;12.13;;
1665;SDS011;831;48.308;14.294;2022-07-12T07:55:19;12.10;;;11.60;;
1665;SDS011;831;48.308;14.294;2022-07-12T07:57:45;12.33;;;11.73;;
1665;SDS011;831;48.308;14.294;2022-07-12T08:00:14;12.33;;;11.73;;
1665;SDS011;831;48.308;14.294;2022-07-12T08:02:40;12.40;;;11.80;;
1665;SDS011;831;48.308;14.294;2022-07-12T08:05:07;12.77;;;12.10;;
1665;SDS011;831;48.308;14.294;2022-07-12T08:07:34;12.43;;;11.93;;
1665;SDS011;831;48.308;14.294;2022-07-12T08:10:00;12.50;;;11.93;;
1665;SDS011;831;48.308;14.294;2022-07-12T08:12:27;13.10;;;12.20;;
1665;SDS011;831;48.308;14.294;2022-07-12T08:14:53;12.77;;;12.00;;
1665;SDS011;831;48.308;14.294;2022-07-12T08:17:21;12.10;;;11.40;;
1665;SDS011;831;48.308;14.294;2022-07-12T08:19:48;11.97;;;11.47;;
1665;SDS011;831;48.308;14.294;2022-07-12T08:22:14;12.97;;;12.20;;
1665;SDS011;831;48.308;14.294;2022-07-12T08:24:41;12.67;;;12.07;;
1665;SDS011;831;48.308;14.294;2022-07-12T08:27:07;12.20;;;11.60;;
1665;SDS011;831;48.308;14.294;2022-07-12T08:29:34;12.33;;;11.73;;
1665;SDS011;831;48.308;14.294;2022-07-12T08:32:01;12.60;;;11.90;;
1665;SDS011;831;48.308;14.294;2022-07-12T08:34:29;11.83;;;11.23;;
1665;SDS011;831;48.308;14.294;2022-07-12T08:36:55;12.60;;;12.00;;
1665;SDS011;831;48.308;14.294;2022-07-12T08:39:22;12.77;;;12.07;;
1665;SDS011;831;48.308;14.294;2022-07-12T08:41:49;12.40;;;11.90;;
1665;SDS011;831;48.308;14.294;2022-07-12T08:44:15;12.40;;;11.90;;
1665;SDS011;831;48.308;14.294;2022-07-12T08:46:42;12.20;;;11.60;;
1665;SDS011;831;48.308;14.294;2022-07-12T08:49:11;12.27;;;11.57;;
1665;SDS011;831;48.308;14.294;2022-07-12T08:51:39;13.07;;;12.27;;
1665;SDS011;831;48.308;14.294;2022-07-12T08:54:07;12.77;;;12.17;;
1665;SDS011;831;48.308;14.294;2022-07-12T08:56:35;13.13;;;12.33;;
1665;SDS011;831;48.308;14.294;2022-07-12T08:59:09;12.50;;;11.90;;
1665;SDS011;831;48.308;14.294;2022-07-12T09:01:40;13.13;;;12.40;;
1665;SDS011;831;48.308;14.294;2022-07-12T09:04:10;13.60;;;12.80;;
1665;SDS011;831;48.308;14.294;2022-07-12T09:06:37;12.93;;;12.33;;
1665;SDS011;831;48.308;14.294;2022-07-12T09:09:05;13.37;;;12.50;;
1665;SDS011;831;48.308;14.294;2022-07-12T09:11:34;12.60;;;12.00;;
1665;SDS011;831;48.308;14.294;2022-07-12T09:14:01;12.13;;;11.63;;
1665;SDS011;831;48.308;14.294;2022-07-12T09:16:28;12.10;;;11.60;;
1665;SDS011;831;48.308;14.294;2022-07-12T09:21:36;12.10;;;11.50;;
1665;SDS011;831;48.308;14.294;2022-07-12T09:24:05;12.47;;;11.73;;
1665;SDS011;831;48.308;14.294;2022-07-12T09:26:32;12.37;;;11.77;;
1665;SDS011;831;48.308;14.294;2022-07-12T09:29:06;12.13;;;11.63;;
1665;SDS011;831;48.308;14.294;2022-07-12T09:31:39;12.77;;;12.10;;
1665;SDS011;831;48.308;14.294;2022-07-12T09:34:26;12.00;;;11.40;;
1665;SDS011;831;48.308;14.294;2022-07-12T09:37:10;12.90;;;12.20;;
1665;SDS011;831;48.308;14.294;2022-07-12T09:39:38;13.07;;;12.53;;
1665;SDS011;831;48.308;14.294;2022-07-12T09:42:06;12.37;;;11.73;;
1665;SDS011;831;48.308;14.294;2022-07-12T09:44:34;12.47;;;11.90;;
1665;SDS011;831;48.308;14.294;2022-07-12T09:47:01;12.50;;;11.90;;
1665;SDS011;831;48.308;14.294;2022-07-12T09:49:28;13.10;;;12.33;;
1665;SDS011;831;48.308;14.294;2022-07-12T09:51:55;12.60;;;11.83;;
1665;SDS011;831;48.308;14.294;2022-07-12T09:54:24;12.17;;;11.67;;
1665;SDS011;831;48.308;14.294;2022-07-12T09:56:53;12.30;;;11.70;;
1665;SDS011;831;48.308;14.294;2022-07-12T09:59:22;12.70;;;12.07;;
1665;SDS011;831;48.308;14.294;2022-07-12T10:01:49;13.10;;;12.40;;
1665;SDS011;831;48.308;14.294;2022-07-12T10:04:18;13.30;;;12.60;;
1665;SDS011;831;48.308;14.294;2022-07-12T10:06:46;12.93;;;12.23;;
1665;SDS011;831;48.308;14.294;2022-07-12T10:09:13;12.70;;;12.10;;
1665;SDS011;831;48.308;14.294;2022-07-12T10:11:40;12.53;;;12.03;;
1665;SDS011;831;48.308;14.294;2022-07-12T10:14:09;12.30;;;11.80;;
1665;SDS011;831;48.308;14.294;2022-07-12T10:16:36;12.20;;;11.70;;
1665;SDS011;831;48.308;14.294;2022-07-12T10:19:24;12.87;;;12.27;;
1665;SDS011;831;48.308;14.294;2022-07-12T10:21:52;12.70;;;12.10;;
1665;SDS011;831;48.308;14.294;2022-07-12T10:27:27;12.57;;;11.87;;
1665;SDS011;831;48.308;14.294;2022-07-12T10:30:11;12.13;;;11.63;;
1665;SDS011;831;48.308;14.294;2022-07-12T10:32:39;12.53;;;11.93;;
1665;SDS011;831;48.308;14.294;2022-07-12T10:35:11;12.80;;;12.20;;
1665;SDS011;831;48.308;14.294;2022-07-12T10:37:38;12.50;;;12.00;;
1665;SDS011;831;48.308;14.294;2022-07-12T10:40:10;12.67;;;12.07;;
1665;SDS011;831;48.308;14.294;2022-07-12T10:42:37;12.43;;;11.80;;
1665;SDS011;831;48.308;14.294;2022-07-12T10:45:10;12.30;;;11.80;;
1665;SDS011;831;48.308;14.294;2022-07-12T10:47:52;12.50;;;11.90;;
1665;SDS011;831;48.308;14.294;2022-07-12T10:50:19;12.83;;;12.23;;
1665;SDS011;831;48.308;14.294;2022-07-12T10:52:45;12.00;;;11.50;;
1665;SDS011;831;48.308;14.294;2022-07-12T10:55:15;11.90;;;11.40;;
1665;SDS011;831;48.308;14.294;2022-07-12T10:57:43;12.60;;;12.10;;
1665;SDS011;831;48.308;14.294;2022-07-12T11:00:12;12.17;;;11.57;;
1665;SDS011;831;48.308;14.294;2022-07-12T11:02:40;12.27;;;11.67;;
1665;SDS011;831;48.308;14.294;2022-07-12T11:05:07;12.40;;;11.90;;
1665;SDS011;831;48.308;14.294;2022-07-12T11:07:34;12.20;;;11.70;;
1665;SDS011;831;48.308;14.294;2022-07-12T11:10:00;12.50;;;12.00;;
1665;SDS011;831;48.308;14.294;2022-07-12T11:12:27;13.13;;;12.37;;
1665;SDS011;831;48.308;14.294;2022-07-12T11:14:54;13.00;;;12.30;;
1665;SDS011;831;48.308;14.294;2022-07-12T11:17:26;12.70;;;12.00;;
1665;SDS011;831;48.308;14.294;2022-07-12T11:20:02;12.57;;;11.97;;
1665;SDS011;831;48.308;14.294;2022-07-12T11:22:29;12.17;;;11.67;;
1665;SDS011;831;48.308;14.294;2022-07-12T11:24:57;12.70;;;12.10;;
1665;SDS011;831;48.308;14.294;2022-07-12T11:27:24;12.03;;;11.53;;
1665;SDS011;831;48.308;14.294;2022-07-12T11:29:57;12.77;;;12.17;;
1665;SDS011;831;48.308;14.294;2022-07-12T11:32:34;12.57;;;11.87;;
1665;SDS011;831;48.308;14.294;2022-07-12T11:35:01;12.47;;;11.97;;
1665;SDS011;831;48.308;14.294;2022-07-12T11:37:28;12.50;;;11.93;;
1665;SDS011;831;48.308;14.294;2022-07-12T11:39:55;12.73;;;12.13;;
1665;SDS011;831;48.308;14.294;2022-07-12T11:42:22;13.00;;;12.33;;
1665;SDS011;831;48.308;14.294;2022-07-12T11:44:49;12.50;;;12.00;;
1665;SDS011;831;48.308;14.294;2022-07-12T11:47:16;12.33;;;11.73;;
1665;SDS011;831;48.308;14.294;2022-07-12T11:49:44;12.47;;;11.97;;
1665;SDS011;831;48.308;14.294;2022-07-12T11:52:12;12.23;;;11.73;;
1665;SDS011;831;48.308;14.294;2022-07-12T11:54:39;12.83;;;12.23;;
1665;SDS011;831;48.308;14.294;2022-07-12T11:57:06;12.83;;;12.23;;
1665;SDS011;831;48.308;14.294;2022-07-12T11:59:33;12.33;;;11.83;;
1665;SDS011;831;48.308;14.294;2022-07-12T12:02:03;12.60;;;12.00;;
1665;SDS011;831;48.308;14.294;2022-07-12T12:04:30;12.60;;;12.00;;
1665;SDS011;831;48.308;14.294;2022-07-12T12:06:58;12.57;;;11.97;;
1665;SDS011;831;48.308;14.294;2022-07-12T12:09:24;13.00;;;12.30;;
1665;SDS011;831;48.308;14.294;2022-07-12T12:11:51;12.50;;;11.90;;
1665;SDS011;831;48.308;14.294;2022-07-12T12:14:18;12.60;;;12.00;;
1665;SDS011;831;48.308;14.294;2022-07-12T12:16:44;13.25;;;12.55;;
1665;SDS011;831;48.308;14.294;2022-07-12T12:19:12;12.20;;;11.70;;
1665;SDS011;831;48.308;14.294;2022-07-12T12:21:38;12.60;;;12.00;;
1665;SDS011;831;48.308;14.294;2022-07-12T12:24:09;12.60;;;12.00;;
1665;SDS011;831;48.308;14.294;2022-07-12T12:26:36;12.40;;;11.90;;
1665;SDS011;831;48.308;14.294;2022-07-12T12:29:03;12.57;;;12.07;;
1665;SDS011;831;48.308;14.294;2022-07-12T12:31:30;12.60;;;12.00;;
1665;SDS011;831;48.308;14.294;2022-07-12T12:33:57;12.50;;;11.80;;
1665;SDS011;831;48.308;14.294;2022-07-12T12:36:24;12.50;;;11.90;;
1665;SDS011;831;48.308;14.294;2022-07-12T12:38:52;12.93;;;12.33;;
1665;SDS011;831;48.308;14.294;2022-07-12T12:41:20;12.20;;;11.70;;
1665;SDS011;831;48.308;14.294;2022-07-12T12:43:47;12.37;;;11.87;;
1665;SDS011;831;48.308;14.294;2022-07-12T12:46:14;13.20;;;12.60;;
1665;SDS011;831;48.308;14.294;2022-07-12T12:48:46;12.63;;;12.03;;
1665;SDS011;831;48.308;14.294;2022-07-12T12:51:12;12.90;;;12.20;;
1665;SDS011;831;48.308;14.294;2022-07-12T12:53:40;12.67;;;11.97;;
1665;SDS011;831;48.308;14.294;2022-07-12T12:56:07;12.40;;;11.90;;
1665;SDS011;831;48.308;14.294;2022-07-12T12:58:36;12.30;;;11.70;;
1665;SDS011;831;48.308;14.294;2022-07-12T13:01:03;12.67;;;12.07;;
1665;SDS011;831;48.308;14.294;2022-07-12T13:03:30;12.47;;;11.87;;
1665;SDS011;831;48.308;14.294;2022-07-12T13:05:57;12.90;;;12.30;;
1665;SDS011;831;48.308;14.294;2022-07-12T13:08:24;12.33;;;11.83;;
1665;SDS011;831;48.308;14.294;2022-07-12T13:10:51;12.37;;;11.77;;
1665;SDS011;831;48.308;14.294;2022-07-12T13:13:31;12.30;;;11.80;;
1665;SDS011;831;48.308;14.294;2022-07-12T13:15:59;12.67;;;12.07;;
1665;SDS011;831;48.308;14.294;2022-07-12T13:18:26;12.97;;;12.37;;
1665;SDS011;831;48.308;14.294;2022-07-12T13:20:52;12.77;;;11.97;;
1665;SDS011;831;48.308;14.294;2022-07-12T13:23:19;12.37;;;11.87;;
1665;SDS011;831;48.308;14.294;2022-07-12T13:25:45;11.77;;;11.27;;
1665;SDS011;831;48.308;14.294;2022-07-12T13:28:12;13.27;;;12.60;;
1665;SDS011;831;48.308;14.294;2022-07-12T13:30:39;12.43;;;11.93;;
1665;SDS011;831;48.308;14.294;2022-07-12T13:33:07;12.70;;;12.10;;
1665;SDS011;831;48.308;14.294;2022-07-12T13:35:33;12.03;;;11.50;;
1665;SDS011;831;48.308;14.294;2022-07-12T13:38:00;12.00;;;11.50;;
1665;SDS011;831;48.308;14.294;2022-07-12T13:40:27;12.20;;;11.67;;
1665;SDS011;831;48.308;14.294;2022-07-12T13:42:54;12.40;;;11.90;;
1665;SDS011;831;48.308;14.294;2022-07-12T13:45:21;12.57;;;12.07;;
1665;SDS011;831;48.308;14.294;2022-07-12T13:47:48;12.03;;;11.53;;
1665;SDS011;831;48.308;14.294;2022-07-12T13:50:17;12.43;;;11.83;;
1665;SDS011;831;48.308;14.294;2022-07-12T13:52:45;12.43;;;11.83;;
1665;SDS011;831;48.308;14.294;2022-07-12T13:55:12;12.30;;;11.70;;
1665;SDS011;831;48.308;14.294;2022-07-12T13:57:39;12.20;;;11.70;;
1665;SDS011;831;48.308;14.294;2022-07-12T14:00:07;12.37;;;11.80;;
1665;SDS011;831;48.308;14.294;2022-07-12T14:02:36;12.60;;;12.00;;
1665;SDS011;831;48.308;14.294;2022-07-12T14:05:04;12.40;;;11.80;;
1665;SDS011;831;48.308;14.294;2022-07-12T14:07:32;12.20;;;11.70;;
1665;SDS011;831;48.308;14.294;2022-07-12T14:09:59;12.10;;;11.50;;
1665;SDS011;831;48.308;14.294;2022-07-12T14:12:26;12.60;;;12.00;;
1665;SDS011;831;48.308;14.294;2022-07-12T14:14:53;12.80;;;12.10;;
1665;SDS011;831;48.308;14.294;2022-07-12T14:17:37;12.50;;;11.90;;
1665;SDS011;831;48.308;14.294;2022-07-12T14:20:04;12.37;;;11.87;;
1665;SDS011;831;48.308;14.294;2022-07-12T14:22:32;12.37;;;11.77;;
1665;SDS011;831;48.308;14.294;2022-07-12T14:25:02;12.27;;;11.70;;
1665;SDS011;831;48.308;14.294;2022-07-12T14:27:33;12.20;;;11.63;;
1665;SDS011;831;48.308;14.294;2022-07-12T14:30:00;12.40;;;11.80;;
1665;SDS011;831;48.308;14.294;2022-07-12T14:32:27;12.47;;;11.87;;
1665;SDS011;831;48.308;14.294;2022-07-12T14:34:55;12.90;;;12.10;;
1665;SDS011;831;48.308;14.294;2022-07-12T14:37:22;12.80;;;12.07;;
1665;SDS011;831;48.308;14.294;2022-07-12T14:39:50;12.60;;;12.00;;
1665;SDS011;831;48.308;14.294;2022-07-12T14:42:16;11.87;;;11.37;;
1665;SDS011;831;48.308;14.294;2022-07-12T14:44:43;12.37;;;11.73;;
1665;SDS011;831;48.308;14.294;2022-07-12T14:47:10;12.73;;;11.90;;
1665;SDS011;831;48.308;14.294;2022-07-12T14:49:36;13.07;;;12.30;;
1665;SDS011;831;48.308;14.294;2022-07-12T14:52:03;12.57;;;11.80;;
1665;SDS011;831;48.308;14.294;2022-07-12T14:54:31;12.47;;;11.77;;
1665;SDS011;831;48.308;14.294;2022-07-12T14:56:59;12.80;;;12.20;;